createdAt,value
2019-03-08T00:01:15.472Z,6.80
2019-03-08T00:03:45.857Z,6.80
2019-03-08T00:06:16.159Z,6.80
2019-03-08T00:08:46.738Z,6.80
2019-03-08T00:11:17.042Z,6.80
2019-03-08T00:13:47.404Z,6.80
2019-03-08T00:16:17.702Z,6.70
2019-03-08T00:18:48.084Z,6.70
2019-03-08T00:21:18.683Z,6.70
2019-03-08T00:23:49.113Z,6.70
2019-03-08T00:26:19.445Z,6.70
2019-03-08T00:28:49.794Z,6.70
2019-03-08T00:31:20.138Z,6.60
2019-03-08T00:33:50.500Z,6.60
2019-03-08T00:36:22.849Z,6.60
2019-03-08T00:38:53.194Z,6.70
2019-03-08T00:41:23.495Z,6.60
2019-03-08T00:43:53.856Z,6.60
2019-03-08T00:46:24.156Z,6.60
2019-03-08T00:48:54.501Z,6.50
2019-03-08T00:51:24.812Z,6.50
2019-03-08T00:53:55.150Z,6.60
2019-03-08T00:56:25.467Z,6.60
2019-03-08T00:58:55.823Z,6.60
2019-03-08T01:01:26.142Z,6.60
2019-03-08T01:03:56.482Z,6.50
2019-03-08T01:06:26.798Z,6.50
2019-03-08T01:08:57.199Z,6.50
2019-03-08T01:11:27.496Z,6.60
2019-03-08T01:13:58.052Z,6.50
2019-03-08T01:16:28.350Z,6.50
2019-03-08T01:18:58.669Z,6.50
2019-03-08T01:21:28.976Z,6.50
2019-03-08T01:23:59.326Z,6.50
2019-03-08T01:26:29.939Z,6.50
2019-03-08T01:29:00.408Z,6.50
2019-03-08T01:31:30.702Z,6.50
2019-03-08T01:34:01.090Z,6.50
2019-03-08T01:36:31.399Z,6.50
2019-03-08T01:39:02.156Z,6.50
2019-03-08T01:41:34.172Z,6.60
2019-03-08T01:44:04.549Z,6.50
2019-03-08T01:46:34.896Z,6.60
2019-03-08T01:49:05.320Z,6.60
2019-03-08T01:51:36.031Z,6.60
2019-03-08T01:54:06.359Z,6.50
2019-03-08T01:56:36.712Z,6.50
2019-03-08T01:59:08.560Z,6.50
2019-03-08T02:01:38.893Z,6.50
2019-03-08T02:04:09.592Z,6.40
2019-03-08T02:06:39.927Z,6.50
2019-03-08T02:09:10.398Z,6.40
2019-03-08T02:11:40.980Z,6.40
2019-03-08T02:14:11.364Z,6.40
2019-03-08T02:16:41.972Z,6.40
2019-03-08T02:19:12.335Z,6.40
2019-03-08T02:21:42.644Z,6.50
2019-03-08T02:24:13.042Z,6.50
2019-03-08T02:26:43.362Z,6.50
2019-03-08T02:29:13.723Z,6.50
2019-03-08T02:31:44.029Z,6.70
2019-03-08T02:34:14.424Z,6.60
2019-03-08T02:36:44.762Z,6.60
2019-03-08T02:39:15.204Z,6.60
2019-03-08T02:41:45.627Z,6.60
2019-03-08T02:44:15.916Z,6.50
2019-03-08T02:46:46.273Z,6.50
2019-03-08T02:49:16.598Z,6.50
2019-03-08T02:51:46.984Z,6.50
2019-03-08T02:54:17.285Z,6.50
2019-03-08T02:56:47.622Z,6.60
2019-03-08T02:59:17.985Z,6.60
2019-03-08T03:01:48.331Z,6.60
2019-03-08T03:04:18.670Z,6.50
2019-03-08T03:06:49.000Z,6.50
2019-03-08T03:09:19.403Z,6.60
2019-03-08T03:11:49.757Z,6.50
2019-03-08T03:14:20.047Z,6.50
2019-03-08T03:16:50.427Z,6.60
2019-03-08T03:19:20.740Z,6.50
2019-03-08T03:21:51.175Z,6.60
2019-03-08T03:24:21.497Z,6.50
2019-03-08T03:26:51.844Z,6.60
2019-03-08T03:29:22.160Z,6.70
2019-03-08T03:31:52.510Z,6.80
2019-03-08T03:34:23.262Z,6.70
2019-03-08T03:36:53.654Z,6.70
2019-03-08T03:39:24.026Z,6.70
2019-03-08T03:41:54.387Z,6.70
2019-03-08T03:44:24.692Z,6.50
2019-03-08T03:46:55.125Z,6.60
2019-03-08T03:49:25.434Z,6.60
2019-03-08T03:51:55.807Z,6.60
2019-03-08T03:54:26.146Z,6.60
2019-03-08T03:56:56.542Z,6.60
2019-03-08T03:59:26.870Z,6.60
2019-03-08T04:01:57.211Z,6.70
2019-03-08T04:04:27.515Z,6.70
2019-03-08T04:06:57.901Z,6.70
2019-03-08T04:09:28.318Z,6.60
2019-03-08T04:11:58.638Z,6.50
2019-03-08T04:14:28.981Z,6.50
2019-03-08T04:16:59.343Z,6.50
2019-03-08T04:19:29.633Z,6.50
2019-03-08T04:22:00.030Z,6.50
2019-03-08T04:24:30.472Z,6.50
2019-03-08T04:27:00.808Z,6.40
2019-03-08T04:29:31.136Z,6.50
2019-03-08T04:32:01.499Z,6.50
2019-03-08T04:34:31.823Z,6.50
2019-03-08T04:37:02.181Z,6.50
2019-03-08T04:39:32.686Z,6.60
2019-03-08T04:42:03.056Z,6.50
2019-03-08T04:44:33.712Z,6.50
2019-03-08T04:47:04.077Z,6.50
2019-03-08T04:49:34.394Z,6.60
2019-03-08T04:52:04.974Z,6.50
2019-03-08T04:54:35.294Z,6.60
2019-03-08T04:57:05.671Z,6.40
2019-03-08T04:59:36.033Z,6.40
2019-03-08T05:02:06.372Z,6.40
2019-03-08T05:04:36.678Z,6.40
2019-03-08T05:07:07.058Z,6.50
2019-03-08T05:09:37.362Z,6.50
2019-03-08T05:12:07.745Z,6.50
2019-03-08T05:14:38.059Z,6.40
2019-03-08T05:17:08.435Z,6.40
2019-03-08T05:19:38.767Z,6.60
2019-03-08T05:22:09.110Z,6.60
2019-03-08T05:24:39.427Z,6.40
2019-03-08T05:27:09.777Z,6.40
2019-03-08T05:29:40.074Z,6.40
2019-03-08T05:32:10.641Z,6.40
2019-03-08T05:35:00.032Z,6.30
2019-03-08T05:37:30.368Z,6.40
2019-03-08T05:40:00.730Z,6.40
2019-03-08T05:42:31.126Z,6.40
2019-03-08T05:45:01.414Z,6.30
2019-03-08T05:47:31.831Z,6.40
2019-03-08T05:50:03.118Z,6.50
2019-03-08T05:52:33.537Z,6.50
2019-03-08T05:55:04.291Z,6.50
2019-03-08T05:57:34.680Z,6.40
2019-03-08T06:00:05.831Z,6.40
2019-03-08T06:02:36.222Z,6.30
2019-03-08T06:05:06.969Z,6.30
2019-03-08T06:07:37.487Z,6.40
2019-03-08T06:10:29.146Z,6.30
2019-03-08T06:13:00.683Z,6.40
2019-03-08T06:15:31.043Z,6.40
2019-03-08T06:18:01.685Z,6.40
2019-03-08T06:20:31.990Z,6.30
2019-03-08T06:23:02.375Z,6.30
2019-03-08T06:25:32.742Z,6.30
2019-03-08T06:28:03.066Z,6.30
2019-03-08T06:30:33.628Z,6.40
2019-03-08T06:33:04.003Z,6.40
2019-03-08T06:35:34.340Z,6.40
2019-03-08T06:38:04.610Z,6.30
2019-03-08T06:40:34.961Z,6.40
2019-03-08T06:43:05.410Z,6.40
2019-03-08T06:45:35.755Z,6.40
2019-03-08T06:48:06.071Z,6.40
2019-03-08T06:50:36.421Z,6.60
2019-03-08T06:53:06.757Z,6.50
2019-03-08T16:04:38.380Z,6.60
2019-03-08T16:48:46.449Z,6.70
2019-03-08T17:33:03.423Z,6.40
2019-03-08T17:43:56.313Z,6.30
2019-03-08T18:34:16.888Z,6.10
2019-03-08T19:10:52.298Z,5.80
2019-03-08T19:18:54.463Z,5.50
2019-03-08T19:22:41.307Z,5.60
2019-03-08T19:25:24.374Z,5.50
2019-03-08T19:31:41.187Z,5.50
2019-03-08T19:35:21.311Z,5.60
2019-03-08T19:44:26.896Z,5.60
2019-03-08T19:46:31.673Z,5.70
2019-03-08T20:14:46.559Z,5.80
2019-03-08T22:56:13.277Z,5.10
2019-03-08T22:59:29.607Z,5.00
